createdAt,value
2023-03-28T00:01:10.791Z,39.13
2023-03-28T00:03:42.394Z,31.48
2023-03-28T00:06:18.382Z,20.85
2023-03-28T00:08:47.638Z,15.13
2023-03-28T00:11:20.867Z,16.40
2023-03-28T00:14:03.456Z,13.40
2023-03-28T00:16:33.982Z,12.00
2023-03-28T00:19:16.131Z,9.32
2023-03-28T00:21:47.009Z,8.68
2023-03-28T00:24:16.987Z,8.60
2023-03-28T00:26:45.340Z,7.22
2023-03-28T00:29:15.880Z,7.82
2023-03-28T00:31:42.985Z,7.40
2023-03-28T00:34:12.881Z,8.50
2023-03-28T00:36:41.665Z,8.05
2023-03-28T00:39:10.440Z,9.38
2023-03-28T00:41:43.833Z,9.88
2023-03-28T00:44:56.444Z,9.02
2023-03-28T00:47:49.574Z,7.65
2023-03-28T00:50:21.626Z,8.18
2023-03-28T00:55:33.935Z,9.57
2023-03-28T00:58:09.946Z,11.73
2023-03-28T01:00:38.992Z,11.82
2023-03-28T01:03:06.826Z,11.68
2023-03-28T01:05:36.016Z,9.80
2023-03-28T01:08:24.977Z,8.68
2023-03-28T01:10:54.359Z,9.07
2023-03-28T01:13:32.695Z,7.38
2023-03-28T01:16:02.999Z,7.78
2023-03-28T01:18:34.938Z,7.28
2023-03-28T01:21:11.788Z,7.45
2023-03-28T01:24:11.157Z,7.82
2023-03-28T01:26:47.260Z,6.75
2023-03-28T01:30:01.592Z,8.18
2023-03-28T01:35:42.277Z,6.63
2023-03-28T01:38:16.853Z,6.47
2023-03-28T01:41:05.480Z,6.40
2023-03-28T01:43:56.258Z,5.55
2023-03-28T01:46:55.601Z,7.45
2023-03-28T01:49:52.058Z,6.90
2023-03-28T01:52:46.686Z,5.65
2023-03-28T01:55:30.323Z,6.63
2023-03-28T01:58:05.575Z,5.93
2023-03-28T02:00:47.985Z,5.72
2023-03-28T02:06:02.753Z,5.63
2023-03-28T02:08:34.906Z,5.32
2023-03-28T02:11:18.106Z,5.53
2023-03-28T02:14:16.842Z,5.03
2023-03-28T02:17:00.529Z,5.82
2023-03-28T02:20:08.990Z,5.80
2023-03-28T02:23:17.811Z,4.03
2023-03-28T02:26:08.951Z,5.07
2023-03-28T02:28:43.099Z,4.70
2023-03-28T02:31:16.444Z,6.10
2023-03-28T02:33:48.693Z,6.25
2023-03-28T02:36:25.797Z,5.78
2023-03-28T02:39:14.755Z,4.75
2023-03-28T02:42:11.185Z,4.93
2023-03-28T02:45:06.270Z,5.88
2023-03-28T02:50:27.385Z,5.10
2023-03-28T02:53:22.235Z,4.95
2023-03-28T02:55:58.396Z,6.43
2023-03-28T02:58:55.377Z,5.80
2023-03-28T03:01:29.352Z,5.53
2023-03-28T03:03:58.353Z,5.15
2023-03-28T03:06:26.078Z,5.85
2023-03-28T03:08:53.166Z,6.00
2023-03-28T03:11:21.433Z,16.00
2023-03-28T03:13:48.539Z,42.35
2023-03-28T03:16:18.478Z,34.25
2023-03-28T03:18:47.629Z,35.03
2023-03-28T03:21:16.797Z,51.20
2023-03-28T03:23:44.006Z,58.58
2023-03-28T03:26:11.996Z,41.03
2023-03-28T03:28:46.173Z,24.83
2023-03-28T03:31:13.652Z,39.00
2023-03-28T03:34:02.089Z,86.38
2023-03-28T03:36:36.196Z,20.13
2023-03-28T03:39:06.614Z,24.83
2023-03-28T03:41:34.008Z,36.00
2023-03-28T03:44:01.051Z,59.35
2023-03-28T03:46:30.792Z,22.70
2023-03-28T03:48:57.979Z,19.73
2023-03-28T03:51:25.505Z,21.55
2023-03-28T03:53:57.202Z,49.88
2023-03-28T03:56:32.462Z,27.35
2023-03-28T03:59:01.008Z,18.98
2023-03-28T04:01:31.420Z,16.10
2023-03-28T04:04:30.460Z,12.70
2023-03-28T04:07:22.606Z,10.85
2023-03-28T04:09:52.527Z,12.73
2023-03-28T04:12:20.240Z,13.18
2023-03-28T04:14:52.427Z,11.23
2023-03-28T04:20:12.940Z,11.10
2023-03-28T04:23:08.554Z,10.43
2023-03-28T04:25:41.561Z,12.05
2023-03-28T04:28:16.225Z,11.80
2023-03-28T04:31:07.418Z,11.95
2023-03-28T04:33:53.894Z,12.73
2023-03-28T04:36:25.707Z,16.30
2023-03-28T04:39:04.242Z,14.48
2023-03-28T04:41:49.965Z,15.27
2023-03-28T04:44:26.564Z,14.63
2023-03-28T04:46:59.741Z,14.23
2023-03-28T04:49:27.127Z,14.93
2023-03-28T04:51:55.036Z,14.95
2023-03-28T04:54:22.712Z,15.32
2023-03-28T04:57:15.705Z,16.85
2023-03-28T04:59:45.721Z,17.77
2023-03-28T05:02:30.738Z,13.68
2023-03-28T05:05:02.636Z,16.63
2023-03-28T05:07:29.762Z,20.33
2023-03-28T05:09:58.361Z,14.73
2023-03-28T05:12:32.167Z,16.17
2023-03-28T05:15:07.764Z,12.43
2023-03-28T05:17:47.005Z,11.43
2023-03-28T05:20:28.543Z,18.45
2023-03-28T05:22:57.434Z,32.97
2023-03-28T05:25:26.091Z,64.55
2023-03-28T05:27:54.962Z,58.35
2023-03-28T05:30:22.654Z,73.68
2023-03-28T05:32:53.394Z,105.78
2023-03-28T05:35:21.059Z,88.35
2023-03-28T05:37:50.214Z,88.10
2023-03-28T05:40:18.336Z,55.67
2023-03-28T05:42:45.782Z,29.33
2023-03-28T05:45:19.088Z,42.95
2023-03-28T05:48:09.570Z,18.15
2023-03-28T05:50:37.657Z,12.85
2023-03-28T05:53:06.519Z,9.70
2023-03-28T05:55:35.699Z,10.30
2023-03-28T05:58:04.359Z,10.52
2023-03-28T06:00:40.311Z,24.17
2023-03-28T06:03:16.746Z,15.30
2023-03-28T06:05:46.001Z,14.93
2023-03-28T06:08:27.345Z,13.40
2023-03-28T06:10:59.706Z,13.57
2023-03-28T06:13:30.688Z,11.75
2023-03-28T06:15:58.423Z,10.68
2023-03-28T06:18:33.920Z,14.02
2023-03-28T06:21:01.699Z,12.00
2023-03-28T06:23:31.242Z,16.10
2023-03-28T06:25:58.807Z,13.57
2023-03-28T06:28:32.425Z,13.30
2023-03-28T06:31:20.122Z,12.07
2023-03-28T06:33:48.118Z,13.15
2023-03-28T06:36:19.344Z,13.05
2023-03-28T06:38:47.572Z,16.50
2023-03-28T06:41:14.929Z,11.10
2023-03-28T06:43:42.171Z,10.50
2023-03-28T06:46:29.640Z,11.15
2023-03-28T06:48:59.507Z,9.10
2023-03-28T06:51:27.316Z,9.32
2023-03-28T06:53:55.551Z,9.43
2023-03-28T06:56:27.224Z,8.48
2023-03-28T06:58:56.373Z,8.13
2023-03-28T07:01:26.657Z,7.50
2023-03-28T07:04:06.524Z,7.70
2023-03-28T07:06:36.128Z,7.65
2023-03-28T07:09:06.641Z,6.80
2023-03-28T07:12:00.420Z,6.60
2023-03-28T07:14:27.707Z,5.85
2023-03-28T07:16:55.694Z,5.70
2023-03-28T07:19:26.201Z,5.85
2023-03-28T07:21:54.269Z,6.38
2023-03-28T07:24:22.441Z,6.95
2023-03-28T07:27:14.821Z,14.85
2023-03-28T07:29:43.109Z,7.03
2023-03-28T07:32:11.225Z,5.68
2023-03-28T07:34:38.271Z,6.55
2023-03-28T07:37:08.909Z,5.97
2023-03-28T07:39:50.091Z,4.95
2023-03-28T07:42:21.828Z,5.30
2023-03-28T07:44:49.306Z,9.02
2023-03-28T07:47:18.278Z,5.68
2023-03-28T07:49:46.010Z,5.15
2023-03-28T07:52:15.452Z,4.00
2023-03-28T07:54:42.780Z,8.70
2023-03-28T07:57:10.169Z,3.42
2023-03-28T07:59:58.236Z,4.50
2023-03-28T08:02:26.977Z,2.90
2023-03-28T08:04:54.184Z,2.30
2023-03-28T08:07:25.748Z,2.38
2023-03-28T08:09:54.768Z,2.70
2023-03-28T08:12:28.956Z,2.72
2023-03-28T08:14:59.776Z,1.92
2023-03-28T08:17:31.682Z,2.20
2023-03-28T08:19:58.864Z,2.78
2023-03-28T08:22:32.150Z,8.93
2023-03-28T08:25:19.535Z,6.85
2023-03-28T08:27:47.664Z,6.30
2023-03-28T08:30:15.641Z,5.47
2023-03-28T08:32:58.614Z,4.97
2023-03-28T08:35:26.237Z,3.17
2023-03-28T08:37:57.808Z,4.00
2023-03-28T08:40:28.628Z,5.22
2023-03-28T08:44:02.195Z,3.80
2023-03-28T08:46:30.574Z,5.22
2023-03-28T08:49:03.443Z,4.47
2023-03-28T08:51:40.917Z,3.22
2023-03-28T08:54:32.454Z,4.18
2023-03-28T08:57:03.034Z,3.55
2023-03-28T08:59:52.093Z,7.32
2023-03-28T09:02:27.695Z,5.35
2023-03-28T09:05:08.192Z,8.82
2023-03-28T09:07:59.878Z,2.20
2023-03-28T09:10:44.727Z,3.72
2023-03-28T09:13:58.035Z,2.88
2023-03-28T09:16:53.867Z,2.35
2023-03-28T09:19:36.905Z,2.65
2023-03-28T09:22:49.446Z,4.57
2023-03-28T09:25:49.068Z,4.03
2023-03-28T09:28:17.855Z,1.20
2023-03-28T09:30:48.903Z,3.55
2023-03-28T09:33:38.583Z,2.00
2023-03-28T09:36:20.799Z,4.07
2023-03-28T09:38:58.192Z,2.42
2023-03-28T09:41:36.868Z,1.75
2023-03-28T09:44:30.251Z,4.30
2023-03-28T09:47:28.937Z,2.22
2023-03-28T09:50:11.801Z,2.70
2023-03-28T09:52:43.055Z,1.75
2023-03-28T09:55:20.872Z,4.05
2023-03-28T09:58:10.191Z,2.63
2023-03-28T10:01:03.807Z,4.03
2023-03-28T10:03:56.159Z,2.97
2023-03-28T10:06:45.446Z,2.10
2023-03-28T10:09:13.565Z,5.60
2023-03-28T10:11:54.752Z,5.85
2023-03-28T10:14:31.766Z,2.40
2023-03-28T10:17:30.097Z,2.10
2023-03-28T10:20:21.825Z,2.60
2023-03-28T10:22:56.789Z,1.77
2023-03-28T10:25:38.738Z,3.92
2023-03-28T10:28:09.395Z,2.55
2023-03-28T10:30:37.583Z,3.30
2023-03-28T10:33:14.633Z,1.85
2023-03-28T10:35:59.697Z,3.03
2023-03-28T10:38:44.610Z,1.65
2023-03-28T10:41:59.498Z,2.38
2023-03-28T10:45:00.234Z,2.50
2023-03-28T10:47:30.692Z,2.22
2023-03-28T10:50:03.398Z,2.35
2023-03-28T10:52:38.436Z,2.13
2023-03-28T10:55:23.408Z,2.72
2023-03-28T10:58:26.371Z,3.58
2023-03-28T11:01:07.780Z,2.58
2023-03-28T11:04:24.326Z,5.82
2023-03-28T11:07:18.027Z,3.33
2023-03-28T11:10:25.252Z,6.65
2023-03-28T11:13:08.948Z,4.13
2023-03-28T11:15:48.461Z,4.03
2023-03-28T11:18:46.722Z,3.72
2023-03-28T11:21:34.682Z,3.83
2023-03-28T11:24:12.679Z,3.88
2023-03-28T11:27:16.366Z,2.42
2023-03-28T11:30:26.339Z,3.67
2023-03-28T11:33:31.985Z,2.78
2023-03-28T11:36:07.407Z,2.60
2023-03-28T11:38:41.447Z,3.65
2023-03-28T11:41:17.360Z,4.85
2023-03-28T11:44:18.364Z,8.68
2023-03-28T11:46:53.208Z,9.55
2023-03-28T11:49:45.745Z,3.65
2023-03-28T11:52:38.949Z,4.00
2023-03-28T11:55:17.057Z,6.90
2023-03-28T11:58:02.364Z,2.85
2023-03-28T12:00:41.685Z,3.40
2023-03-28T12:03:29.314Z,5.85
2023-03-28T12:06:19.908Z,5.00
2023-03-28T12:09:00.952Z,4.03
2023-03-28T12:14:32.057Z,5.25
2023-03-28T12:17:28.775Z,5.65
2023-03-28T12:19:56.479Z,4.00
2023-03-28T12:22:34.241Z,2.97
2023-03-28T12:25:18.321Z,2.53
2023-03-28T12:27:52.166Z,2.90
2023-03-28T12:30:50.872Z,3.65
